createdAt,value
2023-02-19T00:01:18.136Z,74.73942903348818
2023-02-19T00:04:19.204Z,74.69025521704565
2023-02-19T00:07:16.710Z,74.6576462664784
2023-02-19T00:11:18.181Z,75.08340455275582
2023-02-19T00:14:19.286Z,74.93409473864436
2023-02-19T00:17:16.653Z,74.72697957588254
2023-02-19T00:21:16.730Z,74.8721650183202
2023-02-19T00:24:16.542Z,75.05386656301889
2023-02-19T00:27:16.528Z,75.29077141327056
2023-02-19T00:31:18.275Z,75.29890688035026
2023-02-19T00:34:16.969Z,75.52553844011959
2023-02-19T00:37:16.939Z,75.31724377991036
2023-02-19T00:41:23.793Z,75.44084653848914
2023-02-19T00:44:15.978Z,75.41644092901981
2023-02-19T00:47:15.829Z,75.11160142263711
2023-02-19T00:51:15.962Z,74.91392226249421
2023-02-19T00:54:17.016Z,75.25248844102151
2023-02-19T00:57:16.052Z,75.52268733614646
2023-02-19T01:01:16.048Z,75.91586324246977
2023-02-19T01:04:16.611Z,75.90226111405951
2023-02-19T01:07:16.194Z,75.91623525844395
2023-02-19T01:11:16.325Z,76.38403690867574
2023-02-19T01:14:15.989Z,76.65705871381358
2023-02-19T01:17:15.802Z,76.71028044376655
2023-02-19T01:21:18.259Z,76.85682286233678
2023-02-19T01:24:16.706Z,76.83224275285579
2023-02-19T01:27:16.404Z,76.48522223424717
2023-02-19T01:31:19.557Z,76.31435353233014
2023-02-19T01:34:16.606Z,76.13093850150487
2023-02-19T01:37:16.785Z,75.97659771289311
2023-02-19T01:41:18.688Z,75.8845976046784
2023-02-19T01:45:27.062Z,76.067671529536
2023-02-19T01:47:19.394Z,75.85416751617635
2023-02-19T01:51:19.076Z,75.8091702169508
2023-02-19T01:54:21.055Z,75.83509592088123
2023-02-19T01:57:20.458Z,75.84065972688103
2023-02-19T02:01:16.106Z,75.92089234485836
2023-02-19T02:04:18.095Z,75.9914397212447
2023-02-19T02:11:16.358Z,75.8135001821056
2023-02-19T02:14:20.920Z,75.8558948416587
2023-02-19T02:17:23.965Z,75.95688632452757
2023-02-19T02:21:34.493Z,76.02409005963507
2023-02-19T02:24:36.334Z,75.97818898383183
2023-02-19T02:27:34.800Z,75.99632357327083
2023-02-19T02:31:20.248Z,76.00767159904102
2023-02-19T02:34:23.638Z,76.03211976957766
2023-02-19T02:37:16.616Z,76.2317274807907
2023-02-19T02:41:16.127Z,76.31800432785852
2023-02-19T02:44:16.436Z,76.31714769156049
2023-02-19T02:47:45.646Z,76.42960214922768
2023-02-19T02:51:20.336Z,76.74188969761872
2023-02-19T02:55:22.756Z,76.76585768831949
2023-02-19T02:57:18.490Z,76.9083787786814
2023-02-19T03:02:24.434Z,76.38984691887684
2023-02-19T03:04:23.795Z,76.8778181051066
2023-02-19T03:07:16.245Z,76.77504283859224
2023-02-19T03:21:19.154Z,76.29693101885819
2023-02-19T03:41:25.616Z,76.18351770687376
2023-02-19T03:44:23.656Z,76.1759906862106
2023-02-19T03:47:23.574Z,76.30343407494821
2023-02-19T03:51:29.908Z,76.33641863801549
2023-02-19T03:54:21.801Z,76.24415399158913
2023-02-19T03:57:21.156Z,76.33861316666972
2023-02-19T04:01:20.899Z,76.39261546550736
2023-02-19T04:04:19.377Z,76.5169812131719
2023-02-19T04:07:17.104Z,76.34065316565699
2023-02-19T04:11:18.353Z,76.19631879531764
2023-02-19T04:14:21.461Z,76.0845437658243
2023-02-19T04:17:25.716Z,76.0466161420005
2023-02-19T04:21:18.164Z,75.51756307083832
2023-02-19T04:24:21.951Z,75.51156189921507
2023-02-19T04:27:17.088Z,75.42863716070416
2023-02-19T04:31:16.129Z,75.27498847765968
2023-02-19T04:34:16.266Z,75.23057773825927
2023-02-19T04:37:16.227Z,75.40582407174429
2023-02-19T04:41:16.458Z,75.44593563136763
2023-02-19T04:44:17.054Z,75.14549320986586
2023-02-19T04:47:17.846Z,74.89480576950167
2023-02-19T04:51:15.665Z,74.82492939950026
2023-02-19T04:54:15.863Z,75.20835634758804
2023-02-19T04:57:15.898Z,74.92975645027578
2023-02-19T05:01:15.938Z,75.35353180281895
2023-02-19T05:04:16.171Z,75.814345760331
2023-02-19T05:07:15.855Z,76.35647477694991
2023-02-19T05:11:16.300Z,77.05425669024008
2023-02-19T05:14:17.285Z,77.81879153483055
2023-02-19T05:17:16.627Z,78.49694355675341
2023-02-19T05:21:16.049Z,78.77590735434555
2023-02-19T05:24:16.214Z,78.9728219376028
2023-02-19T05:27:16.624Z,79.60087716594623
2023-02-19T05:31:17.784Z,79.59569758782942
2023-02-19T05:34:17.520Z,79.88407065853954
2023-02-19T05:37:17.405Z,80.18866495201266
2023-02-19T05:41:19.176Z,80.27942144212396
2023-02-19T05:44:17.304Z,80.24708256303995
2023-02-19T05:47:17.385Z,80.41372657972292
2023-02-19T05:51:18.585Z,80.16505126416467
2023-02-19T05:54:16.458Z,81.09092103732844
2023-02-19T05:57:16.958Z,81.12805118871971
2023-02-19T06:01:18.328Z,81.19124911856645
2023-02-19T06:04:20.234Z,81.24208323151146
2023-02-19T06:07:17.202Z,80.99066793094833
2023-02-19T06:11:17.144Z,81.09908897237766
2023-02-19T06:14:16.747Z,81.0227597328969
2023-02-19T06:17:16.946Z,81.15407383995759
2023-02-19T06:21:17.296Z,81.24266301512907
2023-02-19T06:31:19.295Z,81.19468511159282
2023-02-19T06:34:16.904Z,81.16281244399403
2023-02-19T06:37:18.561Z,80.963774332042
2023-02-19T06:41:18.224Z,80.73925819868433
2023-02-19T06:44:18.294Z,80.71096037708911
2023-02-19T06:47:16.752Z,80.62218989639113
2023-02-19T06:51:19.394Z,80.75224380047315
2023-02-19T06:54:17.084Z,80.56713556371571
2023-02-19T06:57:17.543Z,80.87650020095518
2023-02-19T07:01:17.746Z,81.18716010072797
2023-02-19T07:04:17.288Z,81.22144320896797
2023-02-19T07:07:21.658Z,81.59487105450116
2023-02-19T07:11:17.489Z,81.42752356970873
2023-02-19T07:14:17.370Z,81.94451437875999
2023-02-19T07:17:17.440Z,82.11488908282466
2023-02-19T07:21:17.870Z,82.0337389080969
2023-02-19T07:24:18.964Z,82.24093604440893
2023-02-19T07:27:17.700Z,82.25032331591633
2023-02-19T07:31:19.475Z,82.86122947158849
2023-02-19T07:34:18.321Z,83.3258886847634
2023-02-19T07:37:17.497Z,83.323927517928
2023-02-19T07:41:17.540Z,82.35553752020677
2023-02-19T07:44:17.863Z,82.40831361362652
2023-02-19T07:47:17.056Z,82.3764599132293
2023-02-19T07:51:20.739Z,82.48716514634688
2023-02-19T07:54:17.060Z,82.16987475786205
2023-02-19T07:57:18.455Z,81.89189599374664
2023-02-19T08:01:22.129Z,82.47283558624491
2023-02-19T08:04:18.638Z,82.06961182865305
2023-02-19T08:07:17.788Z,81.4358759615919
2023-02-19T08:21:20.689Z,80.87810468302463
2023-02-19T08:24:18.225Z,80.9946063528273
2023-02-19T08:27:18.082Z,80.83237839677835
2023-02-19T08:31:17.148Z,80.7352773344124
2023-02-19T08:34:17.213Z,79.84851679940243
2023-02-19T08:37:17.349Z,79.59016825344065
2023-02-19T08:41:16.847Z,79.97104253342847
2023-02-19T08:44:17.321Z,80.13971005118171
2023-02-19T08:47:17.088Z,79.54051158650371
2023-02-19T08:51:16.532Z,79.05643319808964
2023-02-19T08:54:18.086Z,78.32749101292328
2023-02-19T08:57:17.062Z,77.84773591504178
2023-02-19T09:01:17.523Z,77.45909390177357
2023-02-19T09:04:16.950Z,77.17513045134955
2023-02-19T09:07:17.631Z,77.26738381395585
2023-02-19T09:11:16.934Z,75.78815240305791
2023-02-19T09:14:17.672Z,76.00726979489922
2023-02-19T09:17:17.249Z,76.37722050625176
2023-02-19T09:21:17.247Z,76.27169346461669
2023-02-19T09:24:17.682Z,75.0576250359977
2023-02-19T09:27:18.945Z,73.98149948475978
2023-02-19T09:31:16.735Z,70.74965836704689
2023-02-19T09:34:16.751Z,70.65789086620056
2023-02-19T09:37:16.571Z,69.97987302379558
2023-02-19T09:41:24.797Z,70.87333704591741
2023-02-19T09:44:25.715Z,69.7415178875451
2023-02-19T09:47:18.791Z,68.92043255540442
2023-02-19T09:51:16.748Z,69.28800999036062
2023-02-19T09:54:21.791Z,70.49909796525772
2023-02-19T09:57:20.570Z,70.60992305302373
2023-02-19T10:01:18.135Z,70.0100947691664
2023-02-19T10:04:16.667Z,69.16085779690901
2023-02-19T10:07:20.308Z,67.93323777222662
2023-02-19T10:11:16.255Z,67.97767944452022
2023-02-19T10:14:21.691Z,67.64595511831554
2023-02-19T10:17:21.678Z,66.61297078880652
2023-02-19T10:21:18.337Z,67.21842663276011
2023-02-19T10:24:23.365Z,67.39723824840752
2023-02-19T10:27:16.310Z,67.39215897519816
2023-02-19T10:31:20.552Z,66.65896469836697
2023-02-19T10:34:18.495Z,65.48999268806327
2023-02-19T10:37:17.774Z,64.34334003594974
2023-02-19T10:41:20.264Z,64.31868925812914
2023-02-19T10:44:20.946Z,64.33001557343529
2023-02-19T10:47:20.488Z,64.91882880268136
2023-02-19T10:51:33.083Z,65.17867660906334
2023-02-19T10:54:20.130Z,64.16183579949683
2023-02-19T10:57:31.925Z,63.791862564963516
2023-02-19T11:01:19.412Z,62.50184787797545
2023-02-19T11:04:17.940Z,63.26148601435725
2023-02-19T11:07:18.031Z,63.53650143686721
2023-02-19T11:11:34.621Z,63.98698756201138
2023-02-19T11:14:18.985Z,63.114962992603544
2023-02-19T11:17:23.914Z,62.138493206379664
2023-02-19T11:21:25.335Z,62.40564722151029
2023-02-19T11:24:25.939Z,62.50867752421044
2023-02-19T11:27:19.267Z,61.92262639704411
2023-02-19T11:31:24.624Z,62.14173715158437
2023-02-19T11:34:26.654Z,61.482210580608765
2023-02-19T11:37:18.028Z,61.176909023319126
2023-02-19T11:41:25.519Z,60.89311204762483
2023-02-19T11:44:30.356Z,60.70154769063226
2023-02-19T11:47:36.723Z,60.59943568087901
2023-02-19T11:51:29.630Z,60.400022234075955
2023-02-19T11:54:31.763Z,60.537197766569236
2023-02-19T11:57:25.033Z,60.83526657968459
2023-02-19T12:01:22.788Z,60.62105030219486
2023-02-19T12:04:38.559Z,61.00858904395144
2023-02-19T12:07:29.805Z,61.60322852941052
2023-02-19T12:11:32.103Z,61.87288339590724
2023-02-19T12:31:33.975Z,62.39736871000967
2023-02-19T12:34:34.457Z,62.43055659565663
2023-02-19T12:37:30.272Z,62.774472976182444
2023-02-19T12:41:24.886Z,62.21030523693279
2023-02-19T12:44:25.484Z,62.220153853375486
2023-02-19T12:47:20.689Z,62.01648565207224
2023-02-19T12:51:21.742Z,61.93315471002331
2023-02-19T12:54:23.635Z,62.378952427179854
2023-02-19T12:57:20.849Z,62.48206936230306
2023-02-19T13:01:22.250Z,62.91439170160945
2023-02-19T13:04:25.478Z,63.429164887156496
2023-02-19T13:07:23.285Z,63.45469298763604
2023-02-19T13:11:22.420Z,64.09828517144635
2023-02-19T13:14:25.627Z,64.28975788625478
2023-02-19T13:17:26.418Z,64.66278077368685
2023-02-19T13:24:00.525Z,64.71840554899359
2023-02-19T13:24:22.770Z,65.26065972723129
2023-02-19T13:27:36.656Z,65.4856680591466
2023-02-19T13:31:34.958Z,65.59158409740012
2023-02-19T13:34:27.518Z,65.69690442428113
2023-02-19T13:37:17.079Z,65.87717218175754
2023-02-19T13:41:25.431Z,65.840295547133
2023-02-19T13:44:19.312Z,65.92918151129082
2023-02-19T13:47:48.333Z,66.14198289790085
2023-02-19T13:51:49.739Z,66.77414031070214
2023-02-19T13:54:25.481Z,66.73794193822577
2023-02-19T13:57:26.951Z,66.44958146784967
2023-02-19T14:01:18.344Z,67.19937864288885
2023-02-19T14:04:20.178Z,67.75571592102128
2023-02-19T14:08:09.123Z,68.1453281654759
2023-02-19T14:11:17.717Z,68.4718621094715
2023-02-19T14:14:36.792Z,68.22859355824247
2023-02-19T14:17:36.743Z,69.15233957536309
2023-02-19T14:21:24.139Z,68.81986307958475
2023-02-19T14:24:17.343Z,69.16998275171832
2023-02-19T14:27:17.100Z,69.0728742699165
2023-02-19T14:31:26.256Z,69.17478515483276
2023-02-19T14:34:23.411Z,69.6030480946278
2023-02-19T14:37:20.547Z,68.59829365670058
2023-02-19T14:41:17.230Z,69.24199900013761
2023-02-19T14:44:21.954Z,68.56495427442619
2023-02-19T14:47:19.647Z,69.01427962322587
2023-02-19T14:51:29.250Z,68.45271134142766
2023-02-19T14:54:26.841Z,68.55914755039257
2023-02-19T14:57:21.937Z,68.64853763290982
2023-02-19T15:01:34.030Z,68.65673395248473
2023-02-19T15:04:23.803Z,69.06921982203183
2023-02-19T15:07:24.699Z,69.67607280018257
2023-02-19T15:11:21.492Z,70.2285610333826
2023-02-19T15:14:22.945Z,69.82214172319826
2023-02-19T15:17:25.462Z,70.31247170738689
2023-02-19T15:21:24.585Z,69.24288734094453
2023-02-19T15:24:18.688Z,69.63703006656907
2023-02-19T15:27:18.821Z,69.77752411132326
2023-02-19T15:31:17.584Z,68.8195976303392
2023-02-19T15:34:21.142Z,68.77883709779474
2023-02-19T15:37:16.507Z,68.42195088503365
2023-02-19T15:41:21.470Z,69.46185807141156
2023-02-19T15:44:31.352Z,68.95547853632601
2023-02-19T15:47:25.728Z,69.73827427907595
2023-02-19T15:51:23.545Z,69.89859628278641
2023-02-19T15:54:26.884Z,69.86484498164381
2023-02-19T15:57:25.376Z,69.94738177391984
2023-02-19T16:01:23.656Z,69.89691694772647
2023-02-19T16:04:18.295Z,70.4822461181506
2023-02-19T16:07:26.662Z,69.76314732080596
2023-02-19T16:11:27.450Z,69.32192428008524
2023-02-19T16:14:21.442Z,69.34924296535893
2023-02-19T16:17:19.458Z,69.76012076100119
2023-02-19T16:21:20.805Z,70.27424655864286
2023-02-19T16:24:28.000Z,70.28553533954194
2023-02-19T16:27:28.939Z,70.38121108557276
2023-02-19T16:31:20.905Z,70.44944708010327
2023-02-19T16:34:25.414Z,71.27394076772913
2023-02-19T16:37:35.861Z,71.97325322091301
2023-02-19T16:41:16.728Z,72.08573580141093
2023-02-19T16:44:30.300Z,72.08219024786962
2023-02-19T16:47:27.515Z,72.52874020577094
2023-02-19T16:51:25.426Z,72.24673054479561
2023-02-19T16:54:16.997Z,72.1731635285786
2023-02-19T16:57:16.886Z,72.13048916268366
2023-02-19T17:01:16.479Z,72.36101165557302
2023-02-19T17:04:16.578Z,72.27836708331554
2023-02-19T17:07:17.808Z,72.89393290499805
2023-02-19T17:11:17.666Z,73.31913941212375
2023-02-19T17:14:17.232Z,73.79288908756817
2023-02-19T17:17:17.240Z,74.13704948939848
2023-02-19T17:21:19.714Z,74.34676339541234
2023-02-19T17:24:17.580Z,74.23534426114202
2023-02-19T17:27:17.304Z,74.45447489144182
2023-02-19T17:31:16.952Z,74.82921951481684
2023-02-19T17:34:16.690Z,74.72776329264741
2023-02-19T17:37:16.842Z,74.77372708019708
2023-02-19T17:41:15.955Z,75.30037932234063
2023-02-19T17:44:16.328Z,75.86410973964183
2023-02-19T17:47:16.367Z,76.07669091731753
2023-02-19T17:51:16.229Z,76.05322287236042
2023-02-19T17:54:16.211Z,76.03078443428862
2023-02-19T17:57:16.275Z,76.31438904122203
2023-02-19T18:01:16.435Z,76.29265559860167
2023-02-19T18:04:16.887Z,76.7345075760571
2023-02-19T18:07:16.747Z,76.83146642815119
2023-02-19T18:11:17.432Z,76.65894625624482
2023-02-19T18:14:16.874Z,76.90122187096662
2023-02-19T18:17:16.890Z,77.40157551195041
2023-02-19T18:21:16.444Z,77.09478922722258
2023-02-19T18:24:16.745Z,77.13193810617524
2023-02-19T18:27:17.878Z,77.38363282567039
2023-02-19T18:31:16.225Z,78.10731448674262
2023-02-19T18:34:17.848Z,78.15795655650956
2023-02-19T18:37:17.068Z,78.30333581183947
2023-02-19T18:41:19.922Z,78.00590724309623
2023-02-19T18:44:18.020Z,78.37135331117165
2023-02-19T18:47:17.196Z,78.3830434433563
2023-02-19T18:51:15.757Z,78.42468411541161
2023-02-19T18:54:16.360Z,78.510839827646
2023-02-19T18:57:16.464Z,78.42201079445708
2023-02-19T19:01:16.603Z,78.5281703420349
2023-02-19T19:04:16.966Z,78.53346786719538
2023-02-19T19:07:18.010Z,78.64823768694853
2023-02-19T19:11:16.008Z,78.87383668890475
2023-02-19T19:14:16.498Z,79.02355314559146
2023-02-19T19:17:16.422Z,79.07157000190304
2023-02-19T19:21:16.791Z,79.07084967698131
2023-02-19T19:24:16.460Z,79.01227303731795
2023-02-19T19:27:17.994Z,79.02199086513968
2023-02-19T19:31:18.769Z,78.87219447950869
2023-02-19T19:34:17.873Z,79.03800587936985
2023-02-19T19:37:17.225Z,78.92986276419677
2023-02-19T19:41:18.742Z,79.06398734430326
2023-02-19T19:44:16.961Z,79.89073479097966
2023-02-19T19:47:17.355Z,80.07595165836099
2023-02-19T19:51:16.434Z,80.2487522324558
2023-02-19T19:54:16.411Z,80.50207952513534
2023-02-19T19:57:16.388Z,80.79208258895419
2023-02-19T20:01:21.186Z,81.0619138672966
2023-02-19T20:04:16.845Z,80.72249960102413
2023-02-19T20:07:16.623Z,80.77458606883239
2023-02-19T20:11:16.412Z,80.82020460726277
2023-02-19T20:14:19.398Z,81.07382454106752
2023-02-19T20:17:16.810Z,80.5815904657724
2023-02-19T20:21:16.234Z,80.9669926931627
2023-02-19T20:24:19.161Z,81.17388422181509
2023-02-19T20:27:16.729Z,81.0944565423409
2023-02-19T20:31:16.789Z,81.5980728287736
2023-02-19T20:34:17.604Z,81.85193565089378
2023-02-19T20:37:17.057Z,82.02495218397374
2023-02-19T20:41:16.349Z,82.25787417217096
2023-02-19T20:44:18.054Z,82.66711007437989
2023-02-19T20:47:16.284Z,82.71450615561548
2023-02-19T20:51:16.233Z,83.03400720398915
2023-02-19T20:54:16.809Z,82.9530083060501
2023-02-19T20:57:16.088Z,83.1272702947242
2023-02-19T21:01:16.293Z,83.14284156669243
2023-02-19T21:04:18.161Z,82.90165956389178
2023-02-19T21:07:16.695Z,82.60522199603093
2023-02-19T21:11:16.710Z,82.64912332814662
2023-02-19T21:14:19.020Z,82.58939913283923
2023-02-19T21:17:16.959Z,82.74796770231316
2023-02-19T21:21:17.141Z,82.56610974271628
2023-02-19T21:24:16.559Z,82.90523633783047
2023-02-19T21:27:16.135Z,83.11478598999672
2023-02-19T21:31:16.685Z,83.0488852514511
2023-02-19T21:34:19.366Z,83.14559334020771
2023-02-19T21:37:17.077Z,83.57179946423577
2023-02-19T21:41:15.929Z,83.12931607962574
2023-02-19T21:44:16.648Z,82.77724921526263
2023-02-19T21:47:16.747Z,82.87189430199068
2023-02-19T21:51:16.839Z,82.65212877307037
2023-02-19T21:54:18.583Z,82.83505783986517
2023-02-19T21:57:16.398Z,82.71135763311828
2023-02-19T22:01:19.361Z,82.79047100810901
2023-02-19T22:04:18.709Z,82.7133236688324
2023-02-19T22:07:16.983Z,82.87508716970885
2023-02-19T22:11:16.774Z,82.83472329893702
2023-02-19T22:14:17.196Z,83.26744504593299
2023-02-19T22:17:16.927Z,83.5275516170385
2023-02-19T22:21:17.811Z,83.71046251279962
2023-02-19T22:24:20.181Z,83.63555705385481
2023-02-19T22:27:16.970Z,84.07420588344979
2023-02-19T22:31:19.087Z,83.98893584933013
2023-02-19T22:34:16.905Z,84.07945847951916
2023-02-19T22:37:16.867Z,84.02000009826976
2023-02-19T22:41:18.161Z,84.92829624651324
2023-02-19T22:44:17.171Z,85.63212277663632
2023-02-19T22:47:18.203Z,85.57791415893735
2023-02-19T22:51:18.307Z,86.16683053397266
2023-02-19T22:54:17.091Z,86.61887025370413
2023-02-19T22:57:16.888Z,86.73578803781488
2023-02-19T23:01:19.729Z,86.08557255128434
2023-02-19T23:04:18.339Z,85.89719297789021
2023-02-19T23:07:17.184Z,86.37935955080383
2023-02-19T23:11:20.783Z,86.47958193282753
2023-02-19T23:14:17.853Z,86.8130474547181
2023-02-19T23:17:16.361Z,87.27281343531469
2023-02-19T23:21:17.581Z,87.7098346369913
2023-02-19T23:24:16.881Z,88.08508648054534
2023-02-19T23:27:16.827Z,88.333884263553
2023-02-19T23:31:16.741Z,88.15405396529357
2023-02-19T23:34:16.965Z,88.37659046162099
2023-02-19T23:37:17.089Z,88.38614446294211
2023-02-19T23:41:17.641Z,88.36690110113508
2023-02-19T23:44:18.201Z,88.88354183217315
2023-02-19T23:47:17.072Z,88.85083108205984
2023-02-19T23:51:16.437Z,89.06472759216027
2023-02-19T23:54:16.927Z,89.20976667196173
2023-02-19T23:57:16.765Z,88.7456265059704
